createdAt,value
2022-12-19T02:50:52.983Z,986.11
2022-12-19T02:51:27.409Z,986.28
2022-12-19T02:51:45.173Z,986.28
2022-12-19T02:52:15.106Z,986.11
2022-12-19T02:52:44.526Z,986.11
2022-12-19T02:53:15.515Z,986.01
2022-12-19T02:53:46.142Z,986.01
2022-12-19T02:54:18.629Z,986.11
2022-12-19T02:54:55.578Z,986.11
2022-12-19T02:55:19.625Z,986.01
2022-12-19T02:55:50.401Z,986.01
2022-12-19T02:56:21.657Z,986.18
2022-12-19T02:56:52.295Z,986.18
2022-12-19T02:57:23.027Z,986.18
2022-12-19T02:57:54.678Z,986.18
2022-12-19T02:58:25.361Z,986.28
2022-12-19T02:58:56.487Z,986.28
2022-12-19T02:59:39.052Z,986.11
2022-12-19T02:59:58.830Z,986.11
2022-12-19T03:00:33.438Z,986.11
2022-12-19T03:01:00.762Z,986.11
2022-12-19T03:01:32.230Z,986.11
2022-12-19T03:02:02.380Z,986.11
2022-12-19T03:02:33.332Z,986.01
2022-12-19T03:03:04.300Z,986.01
2022-12-19T03:03:35.236Z,986.01
2022-12-19T03:04:08.899Z,986.01
2022-12-19T03:04:40.820Z,986.01
2022-12-19T03:05:09.215Z,986.01
2022-12-19T03:05:40.018Z,986.01
2022-12-19T03:06:10.827Z,985.91
2022-12-19T03:06:41.725Z,985.91
2022-12-19T03:07:12.595Z,986.11
2022-12-19T03:07:43.107Z,986.11
2022-12-19T03:08:14.782Z,985.91
2022-12-19T03:09:18.262Z,986.01
2022-12-19T03:09:48.251Z,986.01
2022-12-19T03:10:19.904Z,986.01
2022-12-19T03:10:53.922Z,986.01
2022-12-19T03:11:20.422Z,986.01
2022-12-19T03:11:51.409Z,986.01
2022-12-19T03:12:23.030Z,986.11
2022-12-19T03:12:53.175Z,986.11
2022-12-19T03:13:24.026Z,985.91
2022-12-19T03:13:55.389Z,985.91
2022-12-19T03:14:26.643Z,986.01
2022-12-19T03:14:58.769Z,986.01
2022-12-19T03:15:30.997Z,985.81
2022-12-19T03:15:59.630Z,985.81
2022-12-19T03:16:30.721Z,986.01
2022-12-19T03:17:01.640Z,986.01
2022-12-19T03:17:32.388Z,985.91
2022-12-19T03:18:04.054Z,985.91
2022-12-19T03:18:34.149Z,985.81
2022-12-19T03:19:05.340Z,985.81
2022-12-19T03:19:38.470Z,985.81
2022-12-19T03:20:08.871Z,985.81
2022-12-19T03:20:39.415Z,985.81
2022-12-19T03:21:09.831Z,985.81
2022-12-19T03:21:40.862Z,985.81
2022-12-19T03:22:11.783Z,985.81
2022-12-19T03:22:42.543Z,985.81
2022-12-19T03:23:13.520Z,985.91
2022-12-19T03:23:44.428Z,985.91
2022-12-19T03:24:15.305Z,986.11
2022-12-19T03:24:46.471Z,986.11
2022-12-19T03:25:19.068Z,986.11
2022-12-19T03:25:49.764Z,986.11
2022-12-19T03:26:19.673Z,986.01
2022-12-19T03:27:09.282Z,986.01
2022-12-19T03:27:21.674Z,986.01
2022-12-19T03:27:55.061Z,986.01
2022-12-19T03:28:24.004Z,985.91
2022-12-19T03:28:54.467Z,985.91
2022-12-19T03:29:31.157Z,985.81
2022-12-19T03:29:56.852Z,985.81
2022-12-19T03:30:52.542Z,986.11
2022-12-19T03:30:59.710Z,986.11
2022-12-19T03:31:30.167Z,986.01
2022-12-19T03:32:01.026Z,986.01
2022-12-19T03:32:31.683Z,986.01
2022-12-19T03:33:02.384Z,986.01
2022-12-19T03:33:33.584Z,986.01
2022-12-19T03:34:04.366Z,986.01
2022-12-19T03:34:35.550Z,985.81
2022-12-19T03:35:06.725Z,985.81
2022-12-19T03:35:39.271Z,985.81
2022-12-19T03:36:13.328Z,986.01
2022-12-19T03:36:41.381Z,986.01
2022-12-19T03:37:10.813Z,985.81
2022-12-19T03:37:42.414Z,985.81
2022-12-19T03:38:12.943Z,986.11
2022-12-19T03:38:43.724Z,986.11
2022-12-19T03:39:16.128Z,985.71
2022-12-19T03:39:45.331Z,985.71
2022-12-19T03:40:18.368Z,985.71
2022-12-19T03:40:48.352Z,985.71
2022-12-19T03:41:19.437Z,985.71
2022-12-19T03:41:49.689Z,985.71
2022-12-19T03:42:20.970Z,985.81
2022-12-19T03:42:53.028Z,985.81
2022-12-19T03:43:22.660Z,986.11
2022-12-19T03:43:53.505Z,986.11
2022-12-19T03:44:24.552Z,985.61
2022-12-19T03:44:55.214Z,985.61
2022-12-19T03:45:28.020Z,985.71
2022-12-19T03:45:57.982Z,985.71
2022-12-19T03:46:29.556Z,985.81
2022-12-19T03:46:59.898Z,985.81
2022-12-19T03:48:02.231Z,985.81
2022-12-19T03:48:32.825Z,985.81
2022-12-19T03:49:04.209Z,985.81
2022-12-19T03:50:05.828Z,985.91
2022-12-19T03:50:36.500Z,985.91
2022-12-19T03:51:09.758Z,985.71
2022-12-19T03:52:10.306Z,985.71
2022-12-19T03:52:40.778Z,985.71
2022-12-19T03:53:13.623Z,985.81
2022-12-19T03:53:42.575Z,985.81
2022-12-19T03:54:16.056Z,985.71
2022-12-19T03:55:02.286Z,985.71
2022-12-19T03:55:16.272Z,985.71
2022-12-19T03:55:46.407Z,985.71
2022-12-19T03:56:17.536Z,985.81
2022-12-19T03:56:49.414Z,985.81
2022-12-19T03:57:32.998Z,985.81
2022-12-19T03:57:51.108Z,985.81
2022-12-19T03:58:21.827Z,985.61
2022-12-19T03:59:23.637Z,985.71
2022-12-19T03:59:54.482Z,985.71
2022-12-19T04:00:25.743Z,986.11
2022-12-19T04:00:56.730Z,986.11
2022-12-19T04:01:28.235Z,985.81
2022-12-19T04:02:00.054Z,985.81
2022-12-19T04:02:30.699Z,985.91
2022-12-19T04:03:01.252Z,985.91
2022-12-19T04:03:31.993Z,985.71
2022-12-19T04:04:02.706Z,985.71
2022-12-19T04:04:33.763Z,986.11
2022-12-19T04:05:04.816Z,986.11
2022-12-19T04:09:43.802Z,986.01
2022-12-19T04:10:54.977Z,985.81
2022-12-19T04:11:18.067Z,985.91
2022-12-19T04:11:48.135Z,985.91
2022-12-19T04:12:19.837Z,985.91
2022-12-19T04:12:50.790Z,985.91
2022-12-19T04:13:20.752Z,985.81
2022-12-19T04:13:51.761Z,985.81
2022-12-19T04:14:22.628Z,985.81
2022-12-19T04:14:54.603Z,985.81
2022-12-19T04:15:25.036Z,985.91
2022-12-19T04:15:55.742Z,985.91
2022-12-19T04:16:26.675Z,985.81
2022-12-19T04:16:57.385Z,985.81
2022-12-19T04:17:30.158Z,985.71
2022-12-19T04:18:00.476Z,985.71
2022-12-19T04:19:01.509Z,985.71
2022-12-19T04:19:32.559Z,986.18
2022-12-19T04:20:03.860Z,986.18
2022-12-19T04:20:34.858Z,985.91
2022-12-19T04:21:05.774Z,985.71
2022-12-19T04:21:36.372Z,985.71
2022-12-19T04:22:07.655Z,985.91
2022-12-19T04:23:10.414Z,985.81
2022-12-19T04:23:41.564Z,985.81
2022-12-19T04:24:30.335Z,985.61
2022-12-19T04:24:42.895Z,985.61
2022-12-19T04:25:13.631Z,985.51
2022-12-19T04:25:44.465Z,985.51
2022-12-19T04:26:15.859Z,985.61
2022-12-19T04:26:46.763Z,985.61
2022-12-19T04:27:17.574Z,985.71
2022-12-19T04:27:51.919Z,985.71
2022-12-19T04:28:20.484Z,985.71
2022-12-19T04:28:50.652Z,985.71
2022-12-19T04:29:21.751Z,985.61
2022-12-19T04:30:05.864Z,985.61
2022-12-19T04:30:23.765Z,985.81
2022-12-19T04:31:11.980Z,985.61
2022-12-19T04:31:26.274Z,985.61
2022-12-19T04:31:56.730Z,985.61
2022-12-19T04:32:27.528Z,985.61
2022-12-19T04:33:00.287Z,985.61
2022-12-19T04:33:30.878Z,985.51
2022-12-19T04:34:01.243Z,985.51
2022-12-19T04:34:31.963Z,985.81
2022-12-19T04:35:02.894Z,985.81
2022-12-19T04:35:33.910Z,985.61
2022-12-19T04:36:05.036Z,985.61
2022-12-19T04:36:35.857Z,985.51
2022-12-19T04:37:06.703Z,985.71
2022-12-19T04:37:37.867Z,985.71
2022-12-19T04:38:09.824Z,985.40
2022-12-19T04:38:40.683Z,985.40
2022-12-19T04:39:10.757Z,985.40
2022-12-19T04:39:41.760Z,985.40
2022-12-19T04:40:13.532Z,985.30
2022-12-19T04:40:43.683Z,985.30
2022-12-19T04:41:14.926Z,985.40
2022-12-19T04:41:45.718Z,985.40
2022-12-19T04:42:17.468Z,985.40
2022-12-19T04:42:47.471Z,985.40
2022-12-19T04:43:19.815Z,985.40
2022-12-19T04:43:49.804Z,985.40
2022-12-19T04:44:21.404Z,985.30
2022-12-19T04:44:52.208Z,985.30
2022-12-19T04:45:23.214Z,985.30
2022-12-19T04:45:57.278Z,985.30
2022-12-19T04:46:24.692Z,985.40
2022-12-19T04:46:56.034Z,985.40
2022-12-19T04:47:26.953Z,985.30
2022-12-19T04:47:57.813Z,985.30
2022-12-19T04:48:28.632Z,985.30
2022-12-19T04:49:00.870Z,985.30
2022-12-19T04:49:31.144Z,985.40
2022-12-19T04:50:01.952Z,985.40
2022-12-19T04:50:32.615Z,985.20
2022-12-19T04:51:03.807Z,985.20
2022-12-19T04:51:34.640Z,985.20
2022-12-19T04:52:05.796Z,985.20
2022-12-19T04:52:36.774Z,985.20
2022-12-19T04:53:25.169Z,985.30
2022-12-19T04:53:39.100Z,985.30
2022-12-19T04:54:11.146Z,985.30
2022-12-19T04:54:41.684Z,985.30
2022-12-19T05:03:44.279Z,985.00
2022-12-19T05:04:04.198Z,985.00
2022-12-19T05:04:31.259Z,985.30
2022-12-19T05:05:06.049Z,985.30
2022-12-19T05:05:32.094Z,985.20
2022-12-19T05:06:02.796Z,985.20
2022-12-19T05:06:33.865Z,985.30
2022-12-19T05:07:05.177Z,985.30
2022-12-19T05:07:35.931Z,985.20
2022-12-19T05:08:07.492Z,985.10
2022-12-19T05:08:38.967Z,985.10
2022-12-19T05:09:09.030Z,985.30
2022-12-19T05:09:39.801Z,985.30
2022-12-19T05:10:11.218Z,985.30
2022-12-19T05:10:41.628Z,985.30
2022-12-19T05:11:15.895Z,985.20
2022-12-19T05:11:44.052Z,985.20
2022-12-19T05:12:23.727Z,985.10
2022-12-19T05:12:46.093Z,985.10
2022-12-19T05:13:16.767Z,985.10
2022-12-19T05:13:48.809Z,985.10
2022-12-19T05:14:19.190Z,985.10
2022-12-19T05:14:49.649Z,985.10
2022-12-19T05:15:21.482Z,985.20
2022-12-19T05:15:52.181Z,985.20
2022-12-19T05:16:22.938Z,985.10
2022-12-19T05:17:00.430Z,985.10
2022-12-19T05:17:24.817Z,985.20
2022-12-19T05:17:55.768Z,985.20
2022-12-19T05:18:30.202Z,985.20
2022-12-19T05:18:58.594Z,985.20
2022-12-19T05:19:28.884Z,985.00
2022-12-19T05:19:59.557Z,985.00
2022-12-19T05:20:30.814Z,985.00
2022-12-19T05:21:01.824Z,985.00
2022-12-19T05:21:32.946Z,985.00
2022-12-19T05:22:04.461Z,985.00
2022-12-19T05:22:34.824Z,985.00
2022-12-19T05:23:11.373Z,985.10
2022-12-19T05:23:37.605Z,985.10
2022-12-19T05:24:08.558Z,985.20
2022-12-19T05:24:39.247Z,985.20
2022-12-19T05:25:10.512Z,985.10
2022-12-19T05:25:41.583Z,985.10
2022-12-19T05:26:11.807Z,985.10
2022-12-19T05:26:53.507Z,985.10
2022-12-19T05:27:14.014Z,985.10
2022-12-19T05:27:44.529Z,985.10
2022-12-19T05:28:15.789Z,985.40
2022-12-19T05:28:47.999Z,985.40
2022-12-19T05:29:18.439Z,985.10
2022-12-19T05:29:49.009Z,985.10
2022-12-19T05:30:20.741Z,985.10
2022-12-19T05:30:52.611Z,985.10
2022-12-19T05:31:22.094Z,985.10
2022-12-19T05:31:53.260Z,985.10
2022-12-19T05:32:24.304Z,985.20
2022-12-19T05:32:54.819Z,985.20
2022-12-19T05:33:26.411Z,985.30
2022-12-19T05:33:58.193Z,985.30
2022-12-19T05:34:28.670Z,985.00
2022-12-19T05:34:58.990Z,985.00
2022-12-19T05:35:29.984Z,985.20
2022-12-19T05:36:01.334Z,985.20
2022-12-19T05:36:32.752Z,985.30
2022-12-19T05:37:03.153Z,985.30
2022-12-19T05:37:33.996Z,985.20
2022-12-19T05:38:05.183Z,985.20
2022-12-19T05:38:35.703Z,985.30
2022-12-19T05:39:08.073Z,985.20
2022-12-19T05:39:38.464Z,985.20
2022-12-19T05:40:09.871Z,984.90
2022-12-19T05:40:40.848Z,984.90
2022-12-19T05:41:11.083Z,985.00
2022-12-19T05:41:41.961Z,985.00
2022-12-19T05:42:13.148Z,985.10
2022-12-19T05:42:43.926Z,985.10
2022-12-19T05:43:14.718Z,985.00
2022-12-19T05:43:45.974Z,985.00
2022-12-19T05:44:18.009Z,984.79
2022-12-19T05:44:49.073Z,984.79
2022-12-19T05:45:19.717Z,985.10
2022-12-19T05:45:49.951Z,985.10
2022-12-19T05:46:20.754Z,985.10
2022-12-19T05:46:52.187Z,985.10
2022-12-19T05:47:22.917Z,985.00
2022-12-19T05:47:58.655Z,985.00
2022-12-19T05:48:24.876Z,985.00
2022-12-19T05:48:56.053Z,985.00
2022-12-19T05:49:28.476Z,985.00
2022-12-19T05:49:58.713Z,985.00
2022-12-19T05:50:29.803Z,985.00
2022-12-19T05:51:00.013Z,985.00
2022-12-19T05:51:31.090Z,984.79
2022-12-19T05:52:01.847Z,984.79
2022-12-19T05:52:34.465Z,984.90
2022-12-19T05:53:04.585Z,984.90
2022-12-19T05:53:34.957Z,985.00
2022-12-19T05:54:06.691Z,984.79
2022-12-19T05:54:38.153Z,984.79
2022-12-19T05:55:08.842Z,984.90
2022-12-19T05:55:39.514Z,984.90
2022-12-19T05:56:09.907Z,985.00
2022-12-19T05:56:40.882Z,985.00
2022-12-19T05:57:12.609Z,985.00
2022-12-19T05:57:43.257Z,985.00
2022-12-19T05:58:14.797Z,984.90
2022-12-19T05:58:44.682Z,984.90
2022-12-19T05:59:16.028Z,985.00
2022-12-19T06:00:05.243Z,985.00
2022-12-19T06:00:50.491Z,985.00
2022-12-19T06:01:20.246Z,984.79
2022-12-19T06:01:51.267Z,984.79
2022-12-19T06:02:22.256Z,984.90
2022-12-19T06:02:53.408Z,984.90
2022-12-19T06:03:24.243Z,984.69
2022-12-19T06:03:55.471Z,984.69
2022-12-19T06:04:26.211Z,985.10
2022-12-19T06:04:59.603Z,985.10
2022-12-19T06:05:29.132Z,984.79
2022-12-19T06:05:59.575Z,984.79
2022-12-19T06:06:30.175Z,984.59
2022-12-19T06:07:01.022Z,984.59
2022-12-19T06:07:32.089Z,984.69
2022-12-19T06:08:03.231Z,984.69
2022-12-19T06:08:34.294Z,984.69
2022-12-19T06:09:04.902Z,984.69
2022-12-19T06:09:35.908Z,984.59
2022-12-19T06:10:08.007Z,984.90
2022-12-19T06:10:39.020Z,984.90
2022-12-19T06:11:10.240Z,984.90
2022-12-19T06:11:40.603Z,984.90
2022-12-19T06:12:11.099Z,984.90
2022-12-19T06:12:41.818Z,984.90
2022-12-19T06:13:12.893Z,984.69
2022-12-19T06:13:44.468Z,984.69
2022-12-19T06:14:15.013Z,984.79
2022-12-19T06:14:46.222Z,984.79
2022-12-19T06:15:17.458Z,984.59
2022-12-19T06:15:48.778Z,984.59
2022-12-19T06:16:19.157Z,984.59
2022-12-19T06:16:59.897Z,984.59
2022-12-19T06:17:21.477Z,984.59
2022-12-19T06:17:52.116Z,984.59
2022-12-19T06:18:23.243Z,984.69
2022-12-19T06:18:54.338Z,984.69
2022-12-19T06:19:24.887Z,984.59
2022-12-19T06:19:56.468Z,984.59
2022-12-19T06:20:27.324Z,984.79
2022-12-19T06:20:58.308Z,984.79
2022-12-19T06:21:29.866Z,984.69
2022-12-19T06:22:00.501Z,984.69
2022-12-19T06:22:31.323Z,984.59
2022-12-19T06:23:02.565Z,984.59
2022-12-19T06:23:33.774Z,984.59
2022-12-19T06:24:04.543Z,984.59
2022-12-19T06:24:39.808Z,984.79
2022-12-19T06:25:06.549Z,984.69
2022-12-19T06:25:40.087Z,984.69
2022-12-19T06:26:08.101Z,984.59
2022-12-19T06:26:38.798Z,984.59
2022-12-19T06:27:10.295Z,984.79
2022-12-19T06:27:41.183Z,984.79
2022-12-19T06:28:12.291Z,984.59
2022-12-19T06:28:44.544Z,984.59
2022-12-19T06:29:14.508Z,984.59
2022-12-19T06:29:45.371Z,984.59
2022-12-19T06:30:16.894Z,984.59
2022-12-19T06:30:54.241Z,984.59
2022-12-19T06:31:18.457Z,984.69
2022-12-19T06:31:50.373Z,984.69
2022-12-19T06:32:20.832Z,984.69
2022-12-19T06:32:51.585Z,984.69
2022-12-19T06:33:22.421Z,984.49
2022-12-19T06:33:53.296Z,984.49
2022-12-19T06:34:54.913Z,984.59
2022-12-19T06:35:12.413Z,984.69
2022-12-19T06:35:26.217Z,984.69
2022-12-19T06:35:57.443Z,984.69
2022-12-19T06:36:28.178Z,984.69
2022-12-19T06:37:02.049Z,984.69
2022-12-19T06:37:30.629Z,984.49
2022-12-19T06:38:01.616Z,984.49
2022-12-19T06:38:32.061Z,984.69
2022-12-19T06:39:03.283Z,984.69
2022-12-19T06:39:34.670Z,984.69
2022-12-19T06:40:05.563Z,984.69
2022-12-19T06:40:35.952Z,984.49
2022-12-19T06:41:07.358Z,984.59
2022-12-19T06:41:55.645Z,984.59
2022-12-19T06:42:09.937Z,984.59
2022-12-19T06:42:40.808Z,984.59
2022-12-19T06:43:11.440Z,984.79
2022-12-19T06:43:42.343Z,984.79
2022-12-19T06:44:14.383Z,984.79
2022-12-19T06:44:45.039Z,984.79
2022-12-19T06:45:15.529Z,984.79
2022-12-19T06:45:46.224Z,984.79
2022-12-19T06:46:17.305Z,984.59
2022-12-19T06:46:48.492Z,984.59
2022-12-19T06:47:20.271Z,984.69
2022-12-19T06:47:51.638Z,984.69
2022-12-19T06:48:21.917Z,984.59
2022-12-19T06:48:52.457Z,984.59
2022-12-19T06:49:23.448Z,984.69
2022-12-19T06:49:54.417Z,984.69
2022-12-19T06:50:25.683Z,984.49
2022-12-19T06:51:01.229Z,984.49
2022-12-19T06:51:27.399Z,984.79
2022-12-19T06:51:58.198Z,984.79
2022-12-19T06:52:29.866Z,984.59
2022-12-19T06:53:01.593Z,984.59
2022-12-19T06:53:31.701Z,984.69
2022-12-19T06:54:02.332Z,984.69
2022-12-19T06:54:33.459Z,984.79
2022-12-19T06:55:05.096Z,984.79
2022-12-19T06:55:35.440Z,984.69
2022-12-19T06:56:06.087Z,984.59
2022-12-19T06:56:37.181Z,984.59
2022-12-19T06:57:08.278Z,984.90
2022-12-19T06:58:11.340Z,984.79
2022-12-19T06:58:41.709Z,984.79
2022-12-19T06:59:12.202Z,984.79
2022-12-19T06:59:43.031Z,984.79
2022-12-19T07:00:15.725Z,984.59
2022-12-19T07:00:45.338Z,984.59
2022-12-19T07:01:22.063Z,984.49
2022-12-19T07:01:47.309Z,984.49
2022-12-19T07:02:35.642Z,984.69
2022-12-19T07:02:50.025Z,984.69
2022-12-19T07:03:37.697Z,984.69
2022-12-19T07:03:51.900Z,984.69
2022-12-19T07:04:22.464Z,984.59
2022-12-19T07:04:53.448Z,984.59
2022-12-19T07:05:24.528Z,984.69
2022-12-19T07:05:55.387Z,984.69
2022-12-19T07:06:39.131Z,984.79
2022-12-19T07:06:57.306Z,984.79
2022-12-19T07:07:28.023Z,984.59
2022-12-19T07:07:59.962Z,984.59
2022-12-19T07:08:31.729Z,984.69
2022-12-19T07:09:02.284Z,984.69
2022-12-19T07:09:32.376Z,984.59
2022-12-19T07:10:03.618Z,984.59
2022-12-19T07:10:35.233Z,984.79
2022-12-19T07:11:05.896Z,984.79
2022-12-19T07:11:36.547Z,984.49
2022-12-19T07:12:07.894Z,984.59
2022-12-19T07:12:55.735Z,984.59
2022-12-19T07:13:10.338Z,984.69
2022-12-19T07:13:40.393Z,984.69
2022-12-19T07:14:11.900Z,984.69
2022-12-19T07:14:42.408Z,984.69
2022-12-19T07:15:13.991Z,984.49
2022-12-19T07:15:44.474Z,984.49
2022-12-19T07:16:15.218Z,984.49
2022-12-19T07:16:46.731Z,984.49
2022-12-19T07:17:17.143Z,984.69
2022-12-19T07:17:48.403Z,984.69
2022-12-19T07:18:20.020Z,984.79
2022-12-19T07:18:51.286Z,984.79
2022-12-19T07:19:21.843Z,984.49
2022-12-19T07:19:52.395Z,984.49
2022-12-19T07:20:23.489Z,984.59
2022-12-19T07:20:54.653Z,984.59
2022-12-19T07:21:25.146Z,984.39
2022-12-19T07:21:56.427Z,984.39
2022-12-19T07:22:28.906Z,984.69
2022-12-19T07:22:58.148Z,984.69
2022-12-19T07:23:29.518Z,984.59
2022-12-19T07:24:01.508Z,984.59
2022-12-19T07:24:32.246Z,984.59
2022-12-19T07:25:02.896Z,984.59
2022-12-19T07:25:34.272Z,984.39
2022-12-19T07:26:04.519Z,984.39
2022-12-19T07:26:35.262Z,984.69
2022-12-19T07:27:06.715Z,984.49
2022-12-19T07:27:37.477Z,984.49
2022-12-19T07:28:08.487Z,984.59
2022-12-19T07:28:39.448Z,984.59
2022-12-19T07:29:11.218Z,984.59
2022-12-19T07:29:41.843Z,984.59
2022-12-19T07:30:13.864Z,984.49
2022-12-19T07:30:43.051Z,984.49
2022-12-19T07:31:14.779Z,984.39
2022-12-19T07:31:47.104Z,984.39
2022-12-19T07:32:16.455Z,984.49
2022-12-19T07:32:48.321Z,984.49
2022-12-19T07:33:21.419Z,984.39
2022-12-19T07:33:49.291Z,984.39
2022-12-19T07:34:21.730Z,984.59
2022-12-19T07:34:52.107Z,984.59
2022-12-19T07:35:23.048Z,984.59
2022-12-19T07:36:04.276Z,984.59
2022-12-19T07:36:24.576Z,984.69
2022-12-19T07:36:55.134Z,984.69
2022-12-19T07:37:26.164Z,984.39
2022-12-19T07:37:57.276Z,984.39
2022-12-19T07:38:28.516Z,984.79
2022-12-19T07:38:59.304Z,984.79
2022-12-19T07:39:31.576Z,984.49
2022-12-19T07:40:02.634Z,984.49
2022-12-19T07:41:09.154Z,984.49
2022-12-19T07:41:14.175Z,984.59
2022-12-19T07:41:34.775Z,984.59
2022-12-19T07:42:05.773Z,984.59
2022-12-19T07:42:36.998Z,984.69
2022-12-19T07:43:07.946Z,984.39
2022-12-19T07:43:38.487Z,984.39
2022-12-19T07:44:10.810Z,984.49
2022-12-19T07:44:41.535Z,984.49
2022-12-19T07:45:12.897Z,984.59
2022-12-19T07:45:42.690Z,984.59
2022-12-19T07:46:13.633Z,984.49
2022-12-19T07:46:44.572Z,984.49
2022-12-19T07:47:15.543Z,984.49
2022-12-19T07:47:46.378Z,984.49
2022-12-19T07:48:17.390Z,984.69
2022-12-19T07:48:48.570Z,984.69
2022-12-19T07:49:22.631Z,984.59
2022-12-19T07:49:51.591Z,984.59
2022-12-19T07:50:22.340Z,984.69
2022-12-19T07:50:52.799Z,984.69
2022-12-19T07:51:23.849Z,984.59
2022-12-19T07:51:54.700Z,984.59
2022-12-19T07:52:25.449Z,984.59
2022-12-19T07:52:56.338Z,984.59
2022-12-19T07:53:27.520Z,984.79
2022-12-19T07:53:58.635Z,984.79
2022-12-19T07:54:29.641Z,984.79
2022-12-19T07:55:02.170Z,984.79
2022-12-19T07:55:32.457Z,984.79
2022-12-19T07:56:03.657Z,984.79
2022-12-19T07:56:33.412Z,984.69
2022-12-19T07:57:05.883Z,984.69
2022-12-19T07:57:35.433Z,984.69
2022-12-19T07:58:06.880Z,984.69
2022-12-19T07:58:37.764Z,984.69
2022-12-19T07:59:10.060Z,984.90
2022-12-19T07:59:39.649Z,984.90
2022-12-19T08:00:11.479Z,984.69
2022-12-19T08:00:42.658Z,984.69
2022-12-19T08:01:12.713Z,984.59
2022-12-19T08:01:44.025Z,984.59
2022-12-19T08:02:14.710Z,984.90
2022-12-19T08:02:45.653Z,984.90
2022-12-19T08:03:17.351Z,984.69
2022-12-19T08:03:47.415Z,984.69
2022-12-19T08:04:20.628Z,984.59
2022-12-19T08:04:49.669Z,984.59
2022-12-19T08:05:23.124Z,984.69
2022-12-19T08:05:51.522Z,984.69
2022-12-19T08:06:23.128Z,984.69
2022-12-19T08:06:53.506Z,984.69
2022-12-19T08:07:25.111Z,984.79
2022-12-19T08:07:55.694Z,984.79
2022-12-19T08:08:26.607Z,984.79
2022-12-19T08:08:57.656Z,984.79
2022-12-19T08:09:59.300Z,984.79
2022-12-19T08:10:30.862Z,984.69
2022-12-19T08:11:02.274Z,984.69
2022-12-19T08:11:33.100Z,984.59
2022-12-19T08:12:04.162Z,984.59
2022-12-19T08:12:34.979Z,984.59
2022-12-19T08:13:05.787Z,984.69
2022-12-19T08:13:54.279Z,984.69
2022-12-19T08:14:07.608Z,984.49
2022-12-19T08:14:39.812Z,984.49
2022-12-19T08:15:12.156Z,984.69
2022-12-19T08:15:41.458Z,984.69
2022-12-19T08:16:13.100Z,984.79
2022-12-19T08:17:18.244Z,984.79
2022-12-19T08:17:44.863Z,984.69
2022-12-19T08:18:15.649Z,984.79
2022-12-19T08:18:46.837Z,984.79
2022-12-19T08:19:17.694Z,984.90
2022-12-19T08:19:48.853Z,984.90
2022-12-19T08:20:19.385Z,984.79
2022-12-19T08:20:51.153Z,984.79
2022-12-19T08:21:22.954Z,984.69
2022-12-19T08:21:53.701Z,984.69
2022-12-19T08:22:32.647Z,984.49
2022-12-19T08:22:54.635Z,984.49
2022-12-19T08:23:26.326Z,984.69
2022-12-19T08:23:56.726Z,984.69
2022-12-19T08:24:27.890Z,984.59
2022-12-19T08:24:58.720Z,984.59
2022-12-19T08:25:38.363Z,984.39
2022-12-19T08:26:00.823Z,984.39
2022-12-19T08:26:37.673Z,984.49
2022-12-19T08:27:03.351Z,984.49
2022-12-19T08:27:33.856Z,984.59
2022-12-19T08:28:04.859Z,984.59
2022-12-19T08:28:35.640Z,984.69
2022-12-19T08:29:06.718Z,984.49
2022-12-19T08:29:37.530Z,984.49
2022-12-19T08:30:09.469Z,984.49
2022-12-19T08:30:39.538Z,984.49
2022-12-19T08:31:10.979Z,984.49
2022-12-19T08:31:58.712Z,984.49
2022-12-19T08:32:20.247Z,984.49
2022-12-19T08:32:44.032Z,984.49
2022-12-19T08:33:32.519Z,984.49
2022-12-19T08:33:45.758Z,984.49
2022-12-19T08:34:16.536Z,984.49
2022-12-19T08:34:48.526Z,984.49
2022-12-19T08:35:18.929Z,984.59
2022-12-19T08:35:51.645Z,984.59
2022-12-19T08:36:21.205Z,984.59
2022-12-19T08:36:52.400Z,984.59
2022-12-19T08:37:28.099Z,984.79
2022-12-19T08:37:54.081Z,984.79
2022-12-19T08:38:24.869Z,984.69
2022-12-19T08:38:56.176Z,984.69
2022-12-19T08:39:26.542Z,984.59
2022-12-19T08:39:57.821Z,984.59
2022-12-19T08:40:28.796Z,984.49
2022-12-19T08:40:59.401Z,984.49
2022-12-19T08:41:30.657Z,984.39
2022-12-19T08:42:02.516Z,984.39
2022-12-19T08:42:33.348Z,984.59
2022-12-19T08:43:03.982Z,984.59
2022-12-19T08:43:35.437Z,984.79
2022-12-19T08:44:06.416Z,984.59
2022-12-19T08:44:37.227Z,984.59
2022-12-19T08:45:08.294Z,984.69
2022-12-19T08:45:38.749Z,984.69
2022-12-19T08:46:09.835Z,984.69
2022-12-19T08:46:44.953Z,984.69
2022-12-19T08:47:12.493Z,984.90
2022-12-19T08:47:43.805Z,984.90
2022-12-19T08:48:14.390Z,984.79
2022-12-19T08:48:45.232Z,984.79
2022-12-19T08:49:15.571Z,984.49
2022-12-19T08:49:46.584Z,984.49
2022-12-19T08:50:18.331Z,984.59
2022-12-19T08:50:48.964Z,984.59
2022-12-19T08:51:19.500Z,984.49
2022-12-19T08:51:51.298Z,984.49
2022-12-19T08:52:22.820Z,984.59
2022-12-19T08:52:53.700Z,984.59
2022-12-19T08:53:26.546Z,984.59
2022-12-19T08:53:55.074Z,984.59
2022-12-19T08:54:26.179Z,984.69
2022-12-19T08:54:56.813Z,984.69
2022-12-19T08:55:27.828Z,984.69
2022-12-19T08:55:58.895Z,984.69
2022-12-19T08:56:29.579Z,984.59
2022-12-19T08:57:01.040Z,984.59
2022-12-19T08:57:32.530Z,984.49
2022-12-19T08:58:03.668Z,984.49
2022-12-19T08:59:05.083Z,984.69
2022-12-19T08:59:35.815Z,984.49
2022-12-19T09:00:08.951Z,984.79
2022-12-19T09:00:37.824Z,984.79
2022-12-19T09:01:09.128Z,984.69
2022-12-19T09:01:39.639Z,984.69
2022-12-19T09:02:11.022Z,984.79
2022-12-19T09:02:42.988Z,984.79
2022-12-19T09:03:13.700Z,984.69
2022-12-19T09:04:12.986Z,984.69
2022-12-19T09:06:05.100Z,984.59
2022-12-19T09:06:50.130Z,984.49
2022-12-19T09:07:21.078Z,984.49
2022-12-19T09:07:53.085Z,984.49
2022-12-19T09:08:28.330Z,984.79
2022-12-19T09:09:00.027Z,984.79
2022-12-19T09:09:25.515Z,984.49
2022-12-19T09:09:55.936Z,984.49
2022-12-19T09:10:26.841Z,984.49
2022-12-19T09:10:57.657Z,984.49
2022-12-19T09:11:28.541Z,984.49
2022-12-19T09:11:59.944Z,984.49
2022-12-19T09:12:31.022Z,984.59
2022-12-19T09:13:02.279Z,984.59
2022-12-19T09:13:35.658Z,984.39
2022-12-19T09:14:04.055Z,984.39
2022-12-19T09:14:35.659Z,984.49
2022-12-19T09:15:07.436Z,984.49
2022-12-19T09:15:38.337Z,984.49
2022-12-19T09:16:09.448Z,984.59
2022-12-19T09:16:40.098Z,984.59
2022-12-19T09:17:11.079Z,984.59
2022-12-19T09:17:42.019Z,984.59
2022-12-19T09:18:13.714Z,984.59
2022-12-19T09:18:48.427Z,984.59
2022-12-19T09:19:15.962Z,984.59
2022-12-19T09:19:48.179Z,984.59
2022-12-19T09:20:25.366Z,984.69
2022-12-19T09:20:48.067Z,984.69
2022-12-19T09:21:19.529Z,984.49
2022-12-19T09:21:50.537Z,984.49
2022-12-19T09:22:21.910Z,984.49
2022-12-19T09:22:52.890Z,984.49
2022-12-19T09:23:23.323Z,984.49
2022-12-19T09:23:54.782Z,984.49
2022-12-19T09:24:25.405Z,984.18
2022-12-19T09:25:01.883Z,984.18
2022-12-19T09:25:26.801Z,984.49
2022-12-19T09:25:58.470Z,984.49
2022-12-19T09:26:28.776Z,984.69
2022-12-19T09:26:58.806Z,984.69
2022-12-19T09:27:30.570Z,984.49
2022-12-19T09:28:26.968Z,984.49
2022-12-19T09:28:33.339Z,984.29
2022-12-19T09:29:04.981Z,984.29
2022-12-19T09:29:35.821Z,984.49
2022-12-19T09:30:07.455Z,984.49
2022-12-19T09:30:37.650Z,984.69
2022-12-19T09:31:07.864Z,984.69
2022-12-19T09:31:38.587Z,984.69
2022-12-19T09:32:09.474Z,984.49
2022-12-19T09:32:41.250Z,984.49
2022-12-19T09:33:12.766Z,984.59
2022-12-19T09:33:43.956Z,984.59
2022-12-19T09:34:14.759Z,984.49
2022-12-19T09:34:45.763Z,984.49
2022-12-19T09:35:16.728Z,984.59
2022-12-19T09:35:47.731Z,984.59
2022-12-19T09:36:18.223Z,984.49
2022-12-19T09:36:48.375Z,984.49
2022-12-19T09:37:20.008Z,984.49
2022-12-19T09:37:56.611Z,984.49
2022-12-19T09:38:21.946Z,984.49